createdAt,value
2019-04-04T00:01:48.814Z,99697.02
2019-04-04T00:04:16.000Z,99748.78
2019-04-04T00:06:42.721Z,99742.34
2019-04-04T00:09:11.089Z,99724.93
2019-04-04T00:11:37.661Z,99753.62
2019-04-04T00:14:04.450Z,99731.44
2019-04-04T00:16:31.188Z,99727.46
2019-04-04T00:18:59.084Z,99727.31
2019-04-04T00:21:25.868Z,99715.88
2019-04-04T00:23:52.610Z,99725.86
2019-04-04T00:26:19.309Z,99724.19
2019-04-04T00:28:46.919Z,99702.72
2019-04-04T00:31:13.889Z,99710.75
2019-04-04T00:33:40.814Z,99702.67
2019-04-04T00:36:07.446Z,99705.02
2019-04-04T00:38:34.045Z,99705.02
2019-04-04T00:41:01.157Z,99701.87
2019-04-04T00:43:27.816Z,99714.56
2019-04-04T00:45:54.445Z,99732.67
2019-04-04T00:48:21.235Z,99749.21
2019-04-04T00:50:48.151Z,99729.58
2019-04-04T00:53:14.880Z,99713.64
2019-04-04T00:55:41.827Z,99682.28
2019-04-04T00:58:08.413Z,99657.15
2019-04-04T01:00:35.142Z,99650.72
2019-04-04T01:03:01.811Z,99627.80
2019-04-04T01:05:30.131Z,99613.88
2019-04-04T01:07:57.209Z,99618.69
2019-04-04T01:10:23.858Z,99676.45
2019-04-04T01:12:52.119Z,99711.48
2019-04-04T01:15:19.283Z,99711.48
2019-04-04T01:17:45.985Z,99680.25
2019-04-04T01:20:13.001Z,99668.39
2019-04-04T01:22:41.863Z,99658.48
2019-04-04T01:25:08.767Z,99663.66
2019-04-04T01:27:37.655Z,99691.78
2019-04-04T01:30:05.217Z,99676.45
2019-04-04T01:32:31.828Z,99679.61
2019-04-04T01:35:00.051Z,99679.61
2019-04-04T01:37:27.797Z,99672.92
2019-04-04T01:39:54.484Z,99674.58
2019-04-04T01:42:21.464Z,99669.12
2019-04-04T01:44:49.178Z,99672.75
2019-04-04T01:47:17.648Z,99661.79
2019-04-04T01:49:44.836Z,99651.86
2019-04-04T01:52:11.549Z,99668.09
2019-04-04T01:54:38.282Z,99664.88
2019-04-04T01:57:07.709Z,99657.82
2019-04-04T01:59:33.591Z,99650.18
2019-04-04T02:02:00.560Z,99657.44
2019-04-04T02:04:27.306Z,99644.08
2019-04-04T02:06:54.188Z,99647.81
2019-04-04T02:09:21.786Z,99638.46
2019-04-04T02:11:48.686Z,99625.38
2019-04-04T02:14:15.645Z,99619.48
2019-04-04T02:16:42.215Z,99619.48
2019-04-04T02:19:08.837Z,99617.66
2019-04-04T02:21:35.813Z,99615.47
2019-04-04T02:24:03.110Z,99619.11
2019-04-04T02:26:29.923Z,99621.78
2019-04-04T02:28:56.673Z,99617.39
2019-04-04T02:31:23.846Z,99617.56
2019-04-04T02:33:50.721Z,99609.48
2019-04-04T02:36:17.614Z,99603.59
2019-04-04T02:39:00.777Z,99591.29
2019-04-04T02:41:27.641Z,99606.38
2019-04-04T02:43:54.402Z,99606.38
2019-04-04T02:46:21.340Z,99600.66
2019-04-04T02:48:48.059Z,99588.36
2019-04-04T02:51:16.973Z,99593.12
2019-04-04T02:53:43.690Z,99593.95
2019-04-04T02:56:11.554Z,99595.72
2019-04-04T02:58:39.003Z,99596.84
2019-04-04T03:01:05.721Z,99572.64
2019-04-04T03:03:33.019Z,99563.53
2019-04-04T03:06:01.090Z,99570.70
2019-04-04T03:08:27.966Z,99579.17
2019-04-04T03:10:55.089Z,99577.75
2019-04-04T03:13:21.806Z,99583.09
2019-04-04T03:15:48.520Z,99584.55
2019-04-04T03:18:15.183Z,99572.05
2019-04-04T03:20:42.219Z,99569.44
2019-04-04T03:23:08.952Z,99580.43
2019-04-04T03:25:36.076Z,99581.39
2019-04-04T03:28:04.148Z,99582.16
2019-04-04T03:30:31.126Z,99581.94
2019-04-04T03:32:57.792Z,99590.55
2019-04-04T03:35:28.534Z,99587.86
2019-04-04T03:37:55.100Z,99596.73
2019-04-04T03:40:24.643Z,99597.20
2019-04-04T03:42:50.310Z,99604.73
2019-04-04T03:45:17.535Z,99627.48
2019-04-04T03:47:44.848Z,99638.14
2019-04-04T03:50:11.774Z,99637.20
2019-04-04T03:52:43.365Z,99645.95
2019-04-04T03:55:08.861Z,99649.73
2019-04-04T03:57:36.185Z,99647.31
2019-04-04T04:00:06.985Z,99637.31
2019-04-04T04:02:33.194Z,99637.75
2019-04-04T04:05:01.912Z,99644.92
2019-04-04T04:07:29.195Z,99651.77
2019-04-04T04:09:59.358Z,99652.63
2019-04-04T04:12:25.739Z,99657.02
2019-04-04T04:14:54.941Z,99658.69
2019-04-04T04:17:20.995Z,99660.02
2019-04-04T04:19:47.647Z,99663.88
2019-04-04T04:22:18.293Z,99661.08
2019-04-04T04:24:48.913Z,99652.31
2019-04-04T04:27:16.690Z,99640.98
2019-04-04T04:29:43.557Z,99640.92
2019-04-04T04:32:11.505Z,99626.84
2019-04-04T04:34:38.253Z,99628.97
2019-04-04T04:37:05.136Z,99626.87
2019-04-04T04:39:35.299Z,99618.40
2019-04-04T04:42:01.215Z,99639.64
2019-04-04T04:44:28.949Z,99650.44
2019-04-04T04:46:55.512Z,99652.53
2019-04-04T04:49:23.454Z,99665.64
2019-04-04T04:51:51.244Z,99667.64
2019-04-04T04:54:17.827Z,99664.79
2019-04-04T04:56:44.565Z,99663.11
2019-04-04T04:59:13.837Z,99666.73
2019-04-04T05:01:41.904Z,99657.99
2019-04-04T05:04:08.880Z,99660.11
2019-04-04T05:06:36.376Z,99645.03
2019-04-04T05:09:04.956Z,99632.27
2019-04-04T05:11:33.124Z,99632.23
2019-04-04T05:13:59.797Z,99660.25
2019-04-04T05:16:26.483Z,99685.30
2019-04-04T05:18:53.404Z,99700.14
2019-04-04T05:21:25.513Z,99691.16
2019-04-04T05:23:49.113Z,99685.66
2019-04-04T05:26:15.980Z,99689.09
2019-04-04T05:28:42.727Z,99685.58
2019-04-04T05:31:09.292Z,99679.09
2019-04-04T05:33:36.272Z,99686.89
2019-04-04T05:36:05.323Z,99694.61
2019-04-04T05:38:32.302Z,99696.55
2019-04-04T05:40:59.561Z,99696.11
2019-04-04T05:43:26.358Z,99693.84
2019-04-04T05:45:53.486Z,99690.72
2019-04-04T05:48:20.215Z,99690.09
2019-04-04T05:50:46.943Z,99695.54
2019-04-04T05:53:14.599Z,99700.21
2019-04-04T05:55:41.778Z,99701.66
2019-04-04T05:58:10.211Z,99712.06
2019-04-04T06:00:38.472Z,99710.16
2019-04-04T06:03:05.642Z,99699.92
2019-04-04T06:05:32.265Z,99691.27
2019-04-04T06:07:59.289Z,99705.65
2019-04-04T06:10:27.631Z,99706.89
2019-04-04T06:12:56.289Z,99723.50
2019-04-04T06:15:23.623Z,99721.77
2019-04-04T06:17:50.254Z,99715.09
2019-04-04T06:20:18.241Z,99712.22
2019-04-04T06:22:45.068Z,99715.73
2019-04-04T06:25:11.942Z,99709.33
2019-04-04T06:27:40.316Z,99700.96
2019-04-04T06:30:08.720Z,99712.41
2019-04-04T06:32:38.604Z,99707.81
2019-04-04T06:35:04.399Z,99697.98
2019-04-04T06:37:31.001Z,99690.99
2019-04-04T06:39:58.897Z,99698.26
2019-04-04T06:42:26.277Z,99701.30
2019-04-04T06:44:54.289Z,99692.22
2019-04-04T06:47:23.164Z,99690.53
2019-04-04T06:49:51.413Z,99685.81
2019-04-04T06:52:19.197Z,99683.17
2019-04-04T06:54:45.958Z,99678.12
2019-04-04T06:57:15.692Z,99678.39
2019-04-04T06:59:44.015Z,99663.26
2019-04-04T07:02:10.679Z,99658.00
2019-04-04T07:04:37.772Z,99665.73
2019-04-04T07:07:05.974Z,99654.11
2019-04-04T07:09:32.938Z,99654.15
2019-04-04T07:11:59.671Z,99661.23
2019-04-04T07:14:29.992Z,99660.08
2019-04-04T07:16:56.319Z,99666.88
2019-04-04T07:19:23.418Z,99653.42
2019-04-04T07:21:51.331Z,99659.00
2019-04-04T07:24:18.563Z,99659.25
2019-04-04T07:26:46.028Z,99660.08
2019-04-04T07:29:12.838Z,99676.62
2019-04-04T07:31:39.990Z,99672.36
2019-04-04T07:34:09.045Z,99678.22
2019-04-04T07:36:36.055Z,99693.84
2019-04-04T07:39:04.621Z,99710.48
2019-04-04T07:41:31.608Z,99717.88
2019-04-04T07:43:58.671Z,99717.88
2019-04-04T07:46:25.690Z,99711.67
2019-04-04T07:48:52.456Z,99715.16
2019-04-04T07:51:19.746Z,99717.06
2019-04-04T07:53:47.386Z,99704.17
2019-04-04T07:56:14.944Z,99702.38
2019-04-04T07:58:41.767Z,99707.71
2019-04-04T08:01:08.498Z,99702.97
2019-04-04T08:03:35.431Z,99696.16
2019-04-04T08:06:02.534Z,99689.53
2019-04-04T08:08:29.399Z,99689.53
2019-04-04T08:10:56.167Z,99668.45
2019-04-04T08:13:22.925Z,99661.09
2019-04-04T08:15:49.486Z,99663.21
2019-04-04T08:18:18.348Z,99659.25
2019-04-04T08:20:45.532Z,99667.20
2019-04-04T08:23:14.429Z,99667.23
2019-04-04T08:25:41.135Z,99660.02
2019-04-04T08:28:09.970Z,99656.91
2019-04-04T08:30:37.376Z,99649.28
2019-04-04T08:33:05.122Z,99660.69
2019-04-04T08:35:31.988Z,99651.73
2019-04-04T08:38:00.090Z,99654.49
2019-04-04T08:40:28.665Z,99661.55
2019-04-04T08:42:55.527Z,99666.83
2019-04-04T08:45:22.271Z,99681.93
2019-04-04T08:47:50.792Z,99689.17
2019-04-04T08:50:19.951Z,99682.06
2019-04-04T08:52:51.271Z,99689.83
2019-04-04T08:55:18.126Z,99687.84
2019-04-04T08:57:46.314Z,99710.77
2019-04-04T09:00:13.896Z,99714.80
2019-04-04T09:02:42.379Z,99722.56
2019-04-04T09:05:12.286Z,99726.94
2019-04-04T09:07:39.110Z,99720.84
2019-04-04T09:10:06.279Z,99724.25
2019-04-04T09:12:33.668Z,99724.02
2019-04-04T09:15:01.247Z,99721.59
2019-04-04T09:17:29.372Z,99728.91
2019-04-04T09:19:56.676Z,99732.21
2019-04-04T09:22:24.230Z,99732.95
2019-04-04T09:24:51.108Z,99734.45
2019-04-04T09:27:18.891Z,99720.05
2019-04-04T09:29:46.856Z,99726.36
2019-04-04T09:32:14.668Z,99725.44
2019-04-04T09:34:41.450Z,99730.03
2019-04-04T09:37:08.886Z,99739.06
2019-04-04T09:39:35.955Z,99737.36
2019-04-04T09:42:02.763Z,99733.41
2019-04-04T09:44:29.559Z,99738.91
2019-04-04T09:47:05.291Z,99753.15
2019-04-04T09:49:26.633Z,99750.91
2019-04-04T09:51:53.595Z,99732.22
2019-04-04T09:54:20.349Z,99738.08
2019-04-04T09:56:47.216Z,99731.83
2019-04-04T09:59:14.630Z,99737.22
2019-04-04T10:01:41.724Z,99729.99
2019-04-04T10:04:09.202Z,99724.98
2019-04-04T10:06:35.830Z,99721.59
2019-04-04T10:09:15.468Z,99720.47
2019-04-04T10:11:34.242Z,99718.27
2019-04-04T10:14:03.904Z,99714.34
2019-04-04T10:16:29.996Z,99722.64
2019-04-04T10:18:57.639Z,99721.45
2019-04-04T10:21:24.265Z,99723.67
2019-04-04T10:23:51.653Z,99712.13
2019-04-04T10:26:18.316Z,99708.47
2019-04-04T10:28:45.186Z,99713.84
2019-04-04T10:31:11.944Z,99709.60
2019-04-04T10:33:41.987Z,99705.92
2019-04-04T10:36:09.196Z,99700.16
2019-04-04T10:38:37.259Z,99703.17
2019-04-04T10:41:04.126Z,99722.02
2019-04-04T10:43:31.126Z,99723.07
2019-04-04T10:45:59.427Z,99717.06
2019-04-04T10:48:26.609Z,99707.74
2019-04-04T10:50:54.672Z,99718.18
2019-04-04T10:53:21.961Z,99706.85
2019-04-04T10:55:48.934Z,99702.88
2019-04-04T10:58:16.405Z,99708.72
2019-04-04T11:00:44.081Z,99710.33
2019-04-04T11:03:12.051Z,99718.08
2019-04-04T11:05:38.613Z,99717.36
2019-04-04T11:08:05.612Z,99718.80
2019-04-04T11:10:32.404Z,99715.39
2019-04-04T11:13:02.655Z,99712.66
2019-04-04T11:15:31.518Z,99714.94
2019-04-04T11:17:59.602Z,99705.92
2019-04-04T11:20:26.771Z,99707.27
2019-04-04T11:22:53.960Z,99694.92
2019-04-04T11:25:21.435Z,99695.91
2019-04-04T11:27:48.348Z,99695.63
2019-04-04T11:30:17.678Z,99701.61
2019-04-04T11:32:48.823Z,99706.66
2019-04-04T11:35:14.782Z,99705.75
2019-04-04T11:37:41.531Z,99708.09
2019-04-04T11:40:09.272Z,99704.27
2019-04-04T11:42:36.642Z,99702.91
2019-04-04T11:45:03.799Z,99705.80
2019-04-04T11:47:32.008Z,99703.81
2019-04-04T11:50:03.959Z,99703.13
2019-04-04T11:52:30.551Z,99707.50
2019-04-04T11:54:59.031Z,99712.56
2019-04-04T11:57:26.133Z,99704.16
2019-04-04T11:59:54.966Z,99710.84
2019-04-04T12:02:22.028Z,99717.25
2019-04-04T12:04:49.033Z,99723.17
2019-04-04T12:07:15.931Z,99731.55
2019-04-04T12:09:42.565Z,99734.87
2019-04-04T12:12:09.182Z,99732.09
2019-04-04T12:14:36.338Z,99737.13
2019-04-04T12:17:04.154Z,99741.78
2019-04-04T12:19:30.791Z,99749.12
2019-04-04T12:21:57.427Z,99748.48
2019-04-04T12:24:25.965Z,99743.58
2019-04-04T12:26:52.750Z,99749.70
2019-04-04T12:29:19.526Z,99751.69
2019-04-04T12:31:46.146Z,99758.19
2019-04-04T12:34:12.715Z,99755.30
2019-04-04T12:36:39.701Z,99758.45
2019-04-04T12:39:06.952Z,99762.22
2019-04-04T12:41:34.643Z,99756.70
2019-04-04T12:44:03.039Z,99758.18
2019-04-04T12:46:29.658Z,99758.36
2019-04-04T12:48:56.262Z,99761.62
2019-04-04T12:51:23.317Z,99752.73
2019-04-04T12:53:49.899Z,99753.67
2019-04-04T12:56:16.568Z,99745.88
2019-04-04T12:58:43.161Z,99746.09
2019-04-04T13:01:10.832Z,99746.03
2019-04-04T13:03:37.588Z,99740.49
2019-04-04T13:06:04.504Z,99736.78
2019-04-04T13:08:32.147Z,99741.59
2019-04-04T13:11:00.035Z,99732.87
2019-04-04T13:13:26.640Z,99736.16
2019-04-04T13:15:55.063Z,99743.86
2019-04-04T13:18:21.927Z,99733.43
2019-04-04T13:20:48.789Z,99729.13
2019-04-04T13:23:15.482Z,99727.00
2019-04-04T13:25:42.468Z,99716.91
2019-04-04T13:28:09.186Z,99715.70
2019-04-04T13:30:35.961Z,99725.29
2019-04-04T13:33:02.722Z,99738.20
2019-04-04T13:35:31.147Z,99748.39
2019-04-04T13:37:59.043Z,99752.19
2019-04-04T13:40:26.131Z,99752.97
2019-04-04T13:42:54.548Z,99748.84
2019-04-04T13:45:24.894Z,99758.44
2019-04-04T13:47:52.476Z,99761.75
2019-04-04T13:50:20.503Z,99757.31
2019-04-04T13:52:47.364Z,99743.78
2019-04-04T13:55:14.819Z,99754.38
2019-04-04T13:57:42.278Z,99746.39
2019-04-04T14:00:09.535Z,99746.97
2019-04-04T14:02:37.389Z,99757.57
2019-04-04T14:05:10.643Z,99756.80
2019-04-04T14:07:35.140Z,99758.83
2019-04-04T14:10:02.212Z,99764.05
2019-04-04T14:12:29.489Z,99756.59
2019-04-04T14:14:56.140Z,99753.02
2019-04-04T14:17:23.311Z,99754.41
2019-04-04T14:19:49.959Z,99750.76
2019-04-04T14:22:17.321Z,99740.50
2019-04-04T14:24:45.286Z,99740.20
2019-04-04T14:27:12.273Z,99741.05
2019-04-04T14:29:38.998Z,99729.97
2019-04-04T14:32:06.223Z,99732.52
2019-04-04T14:34:32.933Z,99729.05
2019-04-04T14:37:00.017Z,99729.02
2019-04-04T14:39:26.614Z,99729.69
2019-04-04T14:41:53.210Z,99724.28
2019-04-04T14:44:19.939Z,99728.48
2019-04-04T14:46:46.716Z,99730.16
2019-04-04T14:49:15.135Z,99731.77
2019-04-04T14:51:41.814Z,99722.36
2019-04-04T14:54:09.510Z,99725.38
2019-04-04T14:56:36.222Z,99729.27
2019-04-04T14:59:04.848Z,99731.63
2019-04-04T15:01:35.083Z,99726.84
2019-04-04T15:04:01.992Z,99724.03
2019-04-04T15:06:28.833Z,99731.52
2019-04-04T15:08:56.141Z,99730.42
2019-04-04T15:11:24.453Z,99725.48
2019-04-04T15:13:51.321Z,99726.91
2019-04-04T15:16:18.020Z,99721.32
2019-04-04T15:18:45.012Z,99706.58
2019-04-04T15:21:13.879Z,99701.77
2019-04-04T15:23:41.076Z,99702.93
2019-04-04T15:26:09.762Z,99707.67
2019-04-04T15:28:36.389Z,99706.61
2019-04-04T15:31:03.994Z,99708.56
2019-04-04T15:33:30.972Z,99711.58
2019-04-04T15:35:57.782Z,99719.37
2019-04-04T15:38:25.432Z,99719.83
2019-04-04T15:40:52.169Z,99730.19
2019-04-04T15:43:18.774Z,99732.28
2019-04-04T15:45:45.911Z,99726.48
2019-04-04T15:48:12.784Z,99721.81
2019-04-04T15:50:39.735Z,99712.92
2019-04-04T15:53:07.077Z,99710.16
2019-04-04T15:55:34.204Z,99701.59
2019-04-04T15:58:02.822Z,99710.22
2019-04-04T16:00:29.807Z,99714.64
2019-04-04T16:02:56.785Z,99725.92
2019-04-04T16:05:23.813Z,99729.52
2019-04-04T16:07:50.548Z,99729.78
2019-04-04T16:10:17.380Z,99720.81
2019-04-04T16:12:44.364Z,99719.97
2019-04-04T16:15:11.425Z,99728.72
2019-04-04T16:17:38.394Z,99726.66
2019-04-04T16:20:05.694Z,99726.23
2019-04-04T16:22:32.550Z,99727.34
2019-04-04T16:25:00.618Z,99721.88
2019-04-04T16:27:28.932Z,99716.50
2019-04-04T16:29:56.411Z,99718.23
2019-04-04T16:32:25.362Z,99713.97
2019-04-04T16:34:52.813Z,99721.66
2019-04-04T16:37:20.472Z,99738.19
2019-04-04T16:39:47.688Z,99736.72
2019-04-04T16:42:14.542Z,99733.05
2019-04-04T16:44:41.477Z,99740.00
2019-04-04T16:47:08.368Z,99739.02
2019-04-04T16:49:34.938Z,99742.34
2019-04-04T16:52:01.703Z,99750.78
2019-04-04T16:54:28.521Z,99760.81
2019-04-04T16:56:55.400Z,99766.06
2019-04-04T16:59:22.609Z,99762.42
2019-04-04T17:01:49.273Z,99775.52
2019-04-04T17:04:16.825Z,99785.15
2019-04-04T17:06:43.451Z,99790.91
2019-04-04T17:09:13.655Z,99786.38
2019-04-04T17:11:42.766Z,99784.27
2019-04-04T17:14:10.584Z,99774.25
2019-04-04T17:16:37.369Z,99776.58
2019-04-04T17:19:04.156Z,99776.61
2019-04-04T17:21:31.236Z,99780.27
2019-04-04T17:23:59.113Z,99781.58
2019-04-04T17:26:25.933Z,99794.52
2019-04-04T17:28:53.258Z,99789.95
2019-04-04T17:31:21.532Z,99801.41
2019-04-04T17:33:49.488Z,99808.19
2019-04-04T17:36:16.273Z,99814.12
2019-04-04T17:38:43.079Z,99811.48
2019-04-04T17:41:09.967Z,99825.41
2019-04-04T17:43:37.372Z,99832.42
2019-04-04T17:46:04.537Z,99838.51
2019-04-04T17:48:32.913Z,99847.13
2019-04-04T17:51:00.919Z,99850.91
2019-04-04T17:53:28.983Z,99865.07
2019-04-04T17:55:56.428Z,99869.84
2019-04-04T17:58:24.105Z,99879.75
2019-04-04T18:00:50.917Z,99871.89
2019-04-04T18:03:17.750Z,99870.48
2019-04-04T18:05:45.432Z,99868.00
2019-04-04T18:08:12.859Z,99877.12
2019-04-04T18:10:39.537Z,99887.41
2019-04-04T18:13:07.024Z,99880.81
2019-04-04T18:15:34.316Z,99884.97
2019-04-04T18:18:01.135Z,99894.66
2019-04-04T18:20:28.439Z,99893.91
2019-04-04T18:22:55.539Z,99910.01
2019-04-04T18:25:22.166Z,99908.13
2019-04-04T18:27:48.891Z,99914.45
2019-04-04T18:30:15.872Z,99917.66
2019-04-04T18:32:42.652Z,99923.30
2019-04-04T18:35:10.692Z,99925.42
2019-04-04T18:37:37.479Z,99937.95
2019-04-04T18:40:05.707Z,99945.06
2019-04-04T18:42:32.616Z,99949.38
2019-04-04T18:44:59.287Z,99961.91
2019-04-04T18:47:28.317Z,99972.23
2019-04-04T18:49:55.067Z,99975.20
2019-04-04T18:52:40.191Z,99981.11
2019-04-04T18:55:19.162Z,99973.66
2019-04-04T18:57:38.336Z,99973.66
2019-04-04T19:00:06.754Z,99964.03
2019-04-04T19:02:43.172Z,99964.03
2019-04-04T19:05:19.888Z,99973.48
2019-04-04T19:07:50.202Z,99975.59
2019-04-04T19:10:18.819Z,99971.20
2019-04-04T19:12:47.867Z,99965.64
2019-04-04T19:15:16.671Z,99965.64
2019-04-04T19:17:43.644Z,99971.30
2019-04-04T19:20:11.491Z,99965.73
2019-04-04T19:22:38.361Z,99954.66
2019-04-04T19:25:06.593Z,99954.66
2019-04-04T19:27:33.851Z,99954.66
2019-04-04T19:30:00.941Z,99951.69
2019-04-04T19:32:27.761Z,99944.70
2019-04-04T19:34:54.545Z,99939.24
2019-04-04T19:37:22.921Z,99939.24
2019-04-04T19:39:50.598Z,99943.63
2019-04-04T19:42:17.567Z,99941.34
2019-04-04T19:44:53.147Z,99932.75
2019-04-04T19:47:14.699Z,99930.20
2019-04-04T19:49:43.312Z,99930.27
2019-04-04T19:52:13.943Z,99931.41
2019-04-04T19:54:42.094Z,99927.22
2019-04-04T19:57:09.880Z,99925.88
2019-04-04T19:59:36.820Z,99934.26
2019-04-04T20:02:05.224Z,99941.52
2019-04-04T20:04:31.988Z,99949.82
2019-04-04T20:07:03.618Z,99946.67
2019-04-04T20:09:30.433Z,99935.59
2019-04-04T20:11:57.901Z,99925.95
2019-04-04T20:14:28.904Z,99930.63
2019-04-04T20:16:55.508Z,99931.87
2019-04-04T20:19:22.285Z,99939.00
2019-04-04T20:21:49.093Z,99931.91
2019-04-04T20:24:15.702Z,99933.81
2019-04-04T20:26:42.503Z,99939.55
2019-04-04T20:29:09.566Z,99941.78
2019-04-04T20:31:36.196Z,99954.38
2019-04-04T20:34:06.048Z,99944.83
2019-04-04T20:36:33.056Z,99952.08
2019-04-04T20:38:59.821Z,99949.88
2019-04-04T20:41:26.698Z,99949.56
2019-04-04T20:43:54.655Z,99939.87
2019-04-04T20:46:21.337Z,99938.53
2019-04-04T20:48:48.091Z,99943.45
2019-04-04T20:51:14.664Z,99939.81
2019-04-04T20:53:42.511Z,99933.62
2019-04-04T20:56:09.203Z,99940.20
2019-04-04T20:58:37.026Z,99928.58
2019-04-04T21:01:04.352Z,99929.62
2019-04-04T21:03:31.347Z,99928.05
2019-04-04T21:05:58.620Z,99928.50
2019-04-04T21:08:25.855Z,99924.56
2019-04-04T21:10:53.549Z,99929.27
2019-04-04T21:13:20.164Z,99932.80
2019-04-04T21:15:47.570Z,99926.41
2019-04-04T21:18:14.649Z,99931.33
2019-04-04T21:20:41.685Z,99940.38
2019-04-04T21:23:09.154Z,99936.38
2019-04-04T21:25:36.163Z,99949.20
2019-04-04T21:28:02.820Z,99948.23
2019-04-04T21:30:29.599Z,99945.24
2019-04-04T21:32:56.379Z,99945.96
2019-04-04T21:35:23.163Z,99952.52
2019-04-04T21:37:51.041Z,99950.70
2019-04-04T21:40:18.061Z,99948.34
2019-04-04T21:42:45.834Z,99948.34
2019-04-04T21:45:16.150Z,99948.52
2019-04-04T21:47:42.804Z,99951.95
2019-04-04T21:50:10.219Z,99953.20
2019-04-04T21:52:36.837Z,99954.39
2019-04-04T21:55:03.938Z,99947.90
2019-04-04T21:57:31.131Z,99951.61
2019-04-04T21:59:59.481Z,99963.83
2019-04-04T22:02:26.213Z,99974.20
2019-04-04T22:04:52.937Z,99971.52
2019-04-04T22:07:20.108Z,99979.41
2019-04-04T22:09:46.746Z,99967.71
2019-04-04T22:12:14.603Z,99978.42
2019-04-04T22:14:42.167Z,99975.20
2019-04-04T22:17:08.769Z,99982.36
2019-04-04T22:19:36.045Z,99986.84
2019-04-04T22:22:02.929Z,99983.16
2019-04-04T22:24:29.611Z,99988.67
2019-04-04T22:26:56.193Z,99990.19
2019-04-04T22:29:22.901Z,99995.53
2019-04-04T22:31:50.102Z,99991.07
2019-04-04T22:34:17.127Z,99987.84
2019-04-04T22:36:43.742Z,99985.78
2019-04-04T22:39:10.805Z,99987.50
2019-04-04T22:41:37.698Z,99989.31
2019-04-04T22:44:04.761Z,99988.61
2019-04-04T22:46:32.552Z,99993.52
2019-04-04T22:48:59.386Z,100004.50
2019-04-04T22:51:26.094Z,100009.73
2019-04-04T22:53:52.646Z,100016.11
2019-04-04T22:56:19.355Z,100024.67
2019-04-04T22:58:46.251Z,100024.02
2019-04-04T23:01:13.396Z,100024.49
2019-04-04T23:03:40.184Z,100028.23
2019-04-04T23:06:06.920Z,100037.09
2019-04-04T23:08:33.711Z,100035.34
2019-04-04T23:11:00.662Z,100028.67
2019-04-04T23:13:27.796Z,100029.24
2019-04-04T23:15:54.431Z,100025.03
2019-04-04T23:18:21.430Z,100034.00
2019-04-04T23:20:49.224Z,100033.91
2019-04-04T23:23:15.885Z,100031.90
2019-04-04T23:25:43.574Z,100032.48
2019-04-04T23:28:11.217Z,100043.21
2019-04-04T23:30:38.391Z,100050.58
2019-04-04T23:33:05.683Z,100056.86
2019-04-04T23:35:34.644Z,100059.62
2019-04-04T23:38:01.531Z,100051.23
2019-04-04T23:40:29.538Z,100044.40
2019-04-04T23:42:56.578Z,100040.88
2019-04-04T23:45:23.418Z,100038.96
2019-04-04T23:47:50.679Z,100041.25
2019-04-04T23:50:17.340Z,100050.55
2019-04-04T23:52:44.191Z,100045.79
2019-04-04T23:55:11.716Z,100032.19
2019-04-04T23:57:38.616Z,100028.31
